createdAt,value
2023-02-12T00:01:27.139Z,3.71
2023-02-12T00:03:53.784Z,3.62
2023-02-12T00:06:20.764Z,3.70
2023-02-12T00:08:52.975Z,3.76
2023-02-12T00:11:26.362Z,3.79
2023-02-12T00:13:53.647Z,3.80
2023-02-12T00:16:27.107Z,3.76
2023-02-12T00:18:55.396Z,3.70
2023-02-12T00:21:38.108Z,3.74
2023-02-12T00:24:04.738Z,3.74
2023-02-12T00:26:31.286Z,3.59
2023-02-12T00:28:58.495Z,3.56
2023-02-12T00:31:28.133Z,3.43
2023-02-12T00:33:55.221Z,3.54
2023-02-12T00:36:24.937Z,3.60
2023-02-12T00:38:53.554Z,3.61
2023-02-12T00:41:21.237Z,3.66
2023-02-12T00:43:48.714Z,3.66
2023-02-12T00:46:15.317Z,3.64
2023-02-12T00:48:43.482Z,3.48
2023-02-12T00:51:10.357Z,3.38
2023-02-12T00:53:44.833Z,3.27
2023-02-12T00:56:12.750Z,3.14
2023-02-12T00:58:42.515Z,3.28
2023-02-12T01:01:09.127Z,3.42
2023-02-12T01:03:37.132Z,3.55
2023-02-12T01:06:03.665Z,3.68
2023-02-12T01:08:30.332Z,3.73
2023-02-12T01:10:59.797Z,3.67
2023-02-12T01:13:26.871Z,3.64
2023-02-12T01:16:09.070Z,3.61
2023-02-12T01:18:37.122Z,3.58
2023-02-12T01:21:13.223Z,3.59
2023-02-12T01:23:40.881Z,3.71
2023-02-12T01:26:11.521Z,3.75
2023-02-12T01:28:40.264Z,3.81
2023-02-12T01:31:13.149Z,3.80
2023-02-12T01:33:39.929Z,3.92
2023-02-12T01:36:07.359Z,3.79
2023-02-12T01:38:34.260Z,3.78
2023-02-12T01:41:22.175Z,3.68
2023-02-12T01:44:25.956Z,3.55
2023-02-12T01:46:58.363Z,3.54
2023-02-12T01:49:29.389Z,3.59
2023-02-12T01:52:01.215Z,3.58
2023-02-12T01:54:28.993Z,3.48
2023-02-12T01:56:57.169Z,3.34
2023-02-12T01:59:24.376Z,3.36
2023-02-12T02:01:51.025Z,3.32
2023-02-12T02:04:22.570Z,3.33
2023-02-12T02:06:56.285Z,3.41
2023-02-12T02:09:24.443Z,3.43
2023-02-12T02:12:09.620Z,3.47
2023-02-12T02:14:38.604Z,3.50
2023-02-12T02:17:17.893Z,3.46
2023-02-12T02:20:03.181Z,3.41
2023-02-12T02:22:41.898Z,3.42
2023-02-12T02:25:22.068Z,3.40
2023-02-12T02:27:48.519Z,3.41
2023-02-12T02:30:45.044Z,3.13
2023-02-12T02:33:25.834Z,3.20
2023-02-12T02:35:56.027Z,3.20
2023-02-12T02:38:42.989Z,3.15
2023-02-12T02:41:39.438Z,3.16
2023-02-12T02:44:18.877Z,3.04
2023-02-12T02:46:48.748Z,3.03
2023-02-12T02:49:24.349Z,3.12
2023-02-12T02:52:01.470Z,3.16
2023-02-12T02:54:34.710Z,3.14
2023-02-12T02:57:08.642Z,3.12
2023-02-12T02:59:43.662Z,3.21
2023-02-12T03:02:20.329Z,3.22
2023-02-12T03:04:52.121Z,3.20
2023-02-12T03:07:21.344Z,3.14
2023-02-12T03:09:57.983Z,3.07
2023-02-12T03:12:43.769Z,3.10
2023-02-12T03:15:19.845Z,3.11
2023-02-12T03:17:49.269Z,3.16
2023-02-12T03:20:20.723Z,3.08
2023-02-12T03:23:09.129Z,3.11
2023-02-12T03:25:41.607Z,3.03
2023-02-12T03:28:22.632Z,3.09
2023-02-12T03:31:11.865Z,3.11
2023-02-12T03:33:53.402Z,3.00
2023-02-12T03:36:28.933Z,2.93
2023-02-12T03:39:05.506Z,2.94
2023-02-12T03:41:42.641Z,2.97
2023-02-12T03:44:48.364Z,3.01
2023-02-12T03:47:56.694Z,3.10
2023-02-12T03:50:37.515Z,3.08
2023-02-12T03:53:08.978Z,3.08
2023-02-12T03:55:41.312Z,3.13
2023-02-12T03:58:12.885Z,3.16
2023-02-12T04:00:40.089Z,2.92
2023-02-12T04:03:07.596Z,2.92
2023-02-12T04:05:34.112Z,2.84
2023-02-12T04:08:04.566Z,2.94
2023-02-12T04:10:52.445Z,3.00
2023-02-12T04:13:32.639Z,2.97
2023-02-12T04:16:07.296Z,3.02
2023-02-12T04:18:46.671Z,3.06
2023-02-12T04:21:19.384Z,3.05
2023-02-12T04:24:20.720Z,2.97
2023-02-12T04:27:14.556Z,2.98
2023-02-12T04:29:53.445Z,3.09
2023-02-12T04:32:43.770Z,3.12
2023-02-12T04:35:21.943Z,2.96
2023-02-12T04:37:57.400Z,2.84
2023-02-12T04:40:24.263Z,2.96
2023-02-12T04:42:52.914Z,3.00
2023-02-12T04:45:23.910Z,2.96
2023-02-12T04:47:50.492Z,3.04
2023-02-12T04:50:17.190Z,3.00
2023-02-12T04:52:44.312Z,3.03
2023-02-12T04:55:10.863Z,2.97
2023-02-12T04:57:37.348Z,2.93
2023-02-12T05:00:06.411Z,2.87
2023-02-12T05:02:36.006Z,2.90
2023-02-12T05:05:03.495Z,2.93
2023-02-12T05:07:30.139Z,2.89
2023-02-12T05:09:56.697Z,2.90
2023-02-12T05:12:39.750Z,2.75
2023-02-12T05:15:06.842Z,2.79
2023-02-12T05:17:33.609Z,2.70
2023-02-12T05:20:00.931Z,2.60
2023-02-12T05:22:27.541Z,2.63
2023-02-12T05:24:54.011Z,2.66
2023-02-12T05:27:20.541Z,2.69
2023-02-12T05:29:47.104Z,2.55
2023-02-12T05:32:14.104Z,2.44
2023-02-12T05:34:40.671Z,2.44
2023-02-12T05:37:07.182Z,2.49
2023-02-12T05:39:33.672Z,2.61
2023-02-12T05:42:00.206Z,2.69
2023-02-12T05:44:26.707Z,2.67
2023-02-12T05:46:54.996Z,2.72
2023-02-12T05:49:21.561Z,2.75
2023-02-12T05:51:50.114Z,2.79
2023-02-12T05:54:16.588Z,2.69
2023-02-12T05:56:46.412Z,2.56
2023-02-12T05:59:17.454Z,2.54
2023-02-12T06:01:46.087Z,2.62
2023-02-12T06:04:25.503Z,2.69
2023-02-12T06:06:54.008Z,2.57
2023-02-12T06:09:20.651Z,2.50
2023-02-12T06:11:47.674Z,2.52
2023-02-12T06:14:16.721Z,2.55
2023-02-12T06:16:48.190Z,2.52
2023-02-12T06:19:19.469Z,2.54
2023-02-12T06:21:49.975Z,2.51
2023-02-12T06:24:17.615Z,2.39
2023-02-12T06:26:45.454Z,2.41
2023-02-12T06:29:15.590Z,2.11
2023-02-12T06:31:42.963Z,1.90
2023-02-12T06:34:12.068Z,1.91
2023-02-12T06:36:57.360Z,1.96
2023-02-12T06:39:24.393Z,1.90
2023-02-12T06:41:50.897Z,1.94
2023-02-12T06:44:17.502Z,2.10
2023-02-12T06:46:44.917Z,2.16
2023-02-12T06:49:13.417Z,2.24
2023-02-12T06:51:41.383Z,2.35
2023-02-12T06:54:16.527Z,2.43
2023-02-12T06:56:48.241Z,2.63
2023-02-12T06:59:17.112Z,2.66
2023-02-12T07:01:45.484Z,2.71
2023-02-12T07:04:12.158Z,2.73
2023-02-12T07:06:39.401Z,2.75
2023-02-12T07:09:06.438Z,2.88
2023-02-12T07:11:39.075Z,2.93
2023-02-12T07:14:07.367Z,2.96
2023-02-12T07:16:34.022Z,3.06
2023-02-12T07:19:00.574Z,3.10
2023-02-12T07:21:27.030Z,3.13
2023-02-12T07:23:53.731Z,3.17
2023-02-12T07:26:21.790Z,3.14
2023-02-12T07:28:49.070Z,3.11
2023-02-12T07:31:22.442Z,3.11
2023-02-12T07:33:49.689Z,3.21
2023-02-12T07:36:19.305Z,3.26
2023-02-12T07:38:46.694Z,3.32
2023-02-12T07:41:16.576Z,3.27
2023-02-12T07:43:45.488Z,3.28
2023-02-12T07:46:17.188Z,3.34
2023-02-12T07:48:46.446Z,3.36
2023-02-12T07:51:18.199Z,3.35
2023-02-12T07:53:45.271Z,3.41
2023-02-12T07:56:18.029Z,3.42
2023-02-12T07:58:47.600Z,3.31
2023-02-12T08:01:18.589Z,3.15
2023-02-12T08:03:46.780Z,3.26
2023-02-12T08:06:23.355Z,3.29
2023-02-12T08:08:59.640Z,3.32
2023-02-12T08:11:28.424Z,3.43
2023-02-12T08:13:55.135Z,3.49
2023-02-12T08:16:24.284Z,3.73
2023-02-12T08:18:51.643Z,3.95
2023-02-12T08:21:25.848Z,4.03
2023-02-12T08:23:54.453Z,4.27
2023-02-12T08:26:31.226Z,4.39
2023-02-12T08:29:09.485Z,4.36
2023-02-12T08:31:39.839Z,4.53
2023-02-12T08:34:06.564Z,4.80
2023-02-12T08:36:38.461Z,5.05
2023-02-12T08:43:21.525Z,5.23
2023-02-12T08:45:48.119Z,5.30
2023-02-12T08:48:15.360Z,5.37
2023-02-12T08:50:43.934Z,5.52
2023-02-12T08:53:22.648Z,5.64
2023-02-12T08:55:50.041Z,5.95
2023-02-12T08:58:20.556Z,6.00
2023-02-12T09:00:47.716Z,6.17
2023-02-12T09:03:15.100Z,6.41
2023-02-12T09:05:42.326Z,6.52
2023-02-12T09:08:09.280Z,6.73
2023-02-12T09:10:40.905Z,6.77
2023-02-12T09:13:08.681Z,6.71
2023-02-12T09:15:44.944Z,6.74
2023-02-12T09:18:13.523Z,6.92
2023-02-12T09:20:43.329Z,7.01
2023-02-12T09:23:13.078Z,7.19
2023-02-12T09:25:45.336Z,7.29
2023-02-12T09:28:14.767Z,7.47
2023-02-12T09:30:41.669Z,7.65
2023-02-12T09:33:10.130Z,7.72
2023-02-12T09:35:37.961Z,7.72
2023-02-12T09:38:05.624Z,7.96
2023-02-12T09:40:55.457Z,8.07
2023-02-12T09:43:32.184Z,8.27
2023-02-12T09:46:06.440Z,8.12
2023-02-12T09:48:33.633Z,8.07
2023-02-12T09:51:03.343Z,7.99
2023-02-12T09:53:32.165Z,8.16
2023-02-12T09:55:59.291Z,8.01
2023-02-12T09:59:06.205Z,8.35
2023-02-12T10:01:33.373Z,8.37
2023-02-12T10:04:00.849Z,8.26
2023-02-12T10:06:52.857Z,8.44
2023-02-12T10:10:00.938Z,8.54
2023-02-12T10:12:39.776Z,8.51
2023-02-12T10:15:32.016Z,9.02
2023-02-12T10:18:09.017Z,9.04
2023-02-12T10:20:47.947Z,9.07
2023-02-12T10:23:25.250Z,8.92
2023-02-12T10:25:56.424Z,8.94
2023-02-12T10:28:31.483Z,9.10
2023-02-12T10:31:02.105Z,9.15
2023-02-12T10:33:35.529Z,9.34
2023-02-12T10:36:07.155Z,9.06
2023-02-12T10:38:40.133Z,9.12
2023-02-12T10:41:06.584Z,9.35
2023-02-12T10:43:33.139Z,9.59
2023-02-12T10:45:59.656Z,9.74
2023-02-12T10:48:36.952Z,9.87
2023-02-12T10:51:09.916Z,9.94
2023-02-12T10:53:45.322Z,9.98
2023-02-12T10:56:14.802Z,10.17
2023-02-12T10:58:50.489Z,10.19
2023-02-12T11:01:30.732Z,10.45
2023-02-12T11:03:59.059Z,10.81
2023-02-12T11:06:31.064Z,11.15
2023-02-12T11:08:59.228Z,11.28
2023-02-12T11:11:33.445Z,11.98
2023-02-12T11:14:07.127Z,11.83
2023-02-12T11:16:37.659Z,12.60
2023-02-12T11:19:06.980Z,12.41
2023-02-12T11:21:34.871Z,12.67
2023-02-12T11:24:26.272Z,12.80
2023-02-12T11:27:12.412Z,14.33
2023-02-12T11:29:39.270Z,14.39
2023-02-12T11:32:10.471Z,14.57
2023-02-12T11:34:37.181Z,15.31
2023-02-12T11:37:05.159Z,16.81
2023-02-12T11:39:38.129Z,18.31
2023-02-12T11:42:20.001Z,19.54
2023-02-12T11:44:57.811Z,19.71
2023-02-12T11:47:30.164Z,19.54
2023-02-12T11:50:15.984Z,20.97
2023-02-12T11:52:43.385Z,20.98
2023-02-12T11:55:22.377Z,20.76
2023-02-12T11:57:51.706Z,20.77
2023-02-12T12:00:18.402Z,21.26
2023-02-12T12:02:53.578Z,20.00
2023-02-12T12:05:22.114Z,19.51
2023-02-12T12:08:16.766Z,19.90
2023-02-12T12:11:01.899Z,20.41
2023-02-12T12:13:35.384Z,20.99
2023-02-12T12:16:30.732Z,20.66
2023-02-12T12:19:23.354Z,20.25
2023-02-12T12:22:03.026Z,21.01
2023-02-12T12:24:44.659Z,21.00
2023-02-12T12:27:45.198Z,21.07
2023-02-12T12:30:37.988Z,20.82
2023-02-12T12:33:12.976Z,22.51
2023-02-12T12:35:44.726Z,22.32
2023-02-12T12:38:27.942Z,21.46
2023-02-12T12:41:08.462Z,21.33
2023-02-12T12:43:40.296Z,21.14
2023-02-12T12:46:34.187Z,21.01
2023-02-12T12:49:03.624Z,19.93
2023-02-12T12:51:35.972Z,20.81
2023-02-12T12:54:11.411Z,21.52
2023-02-12T12:57:06.111Z,21.11
2023-02-12T12:59:55.571Z,21.72
2023-02-12T13:02:34.151Z,21.81
2023-02-12T13:05:33.358Z,21.92
2023-02-12T13:08:04.913Z,22.29
2023-02-12T13:10:46.327Z,21.89
2023-02-12T13:13:19.146Z,22.30
2023-02-12T13:15:51.377Z,22.14
2023-02-12T13:18:41.683Z,22.54
2023-02-12T13:21:45.487Z,22.53
2023-02-12T13:24:26.904Z,21.99
2023-02-12T13:27:03.080Z,23.03
2023-02-12T13:29:33.940Z,22.68
2023-02-12T13:32:31.990Z,22.74
2023-02-12T13:35:00.739Z,22.47
2023-02-12T13:37:41.769Z,22.68
2023-02-12T13:40:18.607Z,22.34
2023-02-12T13:42:54.218Z,22.58
2023-02-12T13:45:29.755Z,22.94
2023-02-12T13:48:32.002Z,23.61
2023-02-12T13:51:22.890Z,24.59
2023-02-12T13:54:04.579Z,23.73
2023-02-12T13:57:00.460Z,24.33
2023-02-12T13:59:33.016Z,24.19
2023-02-12T14:02:02.305Z,24.93
2023-02-12T14:04:37.709Z,24.95
2023-02-12T14:07:06.953Z,24.84
2023-02-12T14:09:40.501Z,25.09
2023-02-12T14:12:14.839Z,25.00
2023-02-12T14:14:51.508Z,24.85
2023-02-12T14:17:33.234Z,24.75
2023-02-12T14:20:21.402Z,24.66
2023-02-12T14:22:47.972Z,24.37
2023-02-12T14:25:14.992Z,24.74
2023-02-12T14:27:41.718Z,24.65
2023-02-12T14:30:11.599Z,24.17
2023-02-12T14:32:50.198Z,24.85
2023-02-12T14:35:41.098Z,24.70
2023-02-12T14:38:19.808Z,25.58
2023-02-12T14:40:50.845Z,24.58
2023-02-12T14:43:54.896Z,23.93
2023-02-12T14:46:24.770Z,24.14
2023-02-12T14:48:57.997Z,24.15
2023-02-12T14:51:43.575Z,23.70
2023-02-12T14:54:25.891Z,20.83
2023-02-12T14:56:55.597Z,18.69
2023-02-12T14:59:25.958Z,16.95
2023-02-12T15:01:54.670Z,15.57
2023-02-12T15:04:34.850Z,14.66
2023-02-12T15:07:08.365Z,14.03
2023-02-12T15:10:13.157Z,13.55
2023-02-12T15:12:45.860Z,13.13
2023-02-12T15:15:19.866Z,12.92
2023-02-12T15:17:58.154Z,12.81
2023-02-12T15:20:33.498Z,12.65
2023-02-12T15:23:00.012Z,12.80
2023-02-12T15:25:32.245Z,12.82
2023-02-12T15:28:17.479Z,12.52
2023-02-12T15:30:46.013Z,12.43
2023-02-12T15:33:31.674Z,12.38
2023-02-12T15:35:59.670Z,12.31
2023-02-12T15:38:45.147Z,12.26
2023-02-12T15:41:33.380Z,12.15
2023-02-12T15:44:01.499Z,12.08
2023-02-12T15:46:29.900Z,11.91
2023-02-12T15:48:56.560Z,11.90
2023-02-12T15:51:38.470Z,11.63
2023-02-12T15:54:07.274Z,11.41
2023-02-12T15:56:36.238Z,11.45
2023-02-12T15:59:03.705Z,11.30
2023-02-12T16:01:33.246Z,11.04
2023-02-12T16:04:06.747Z,11.06
2023-02-12T16:06:36.651Z,11.04
2023-02-12T16:09:27.537Z,10.96
2023-02-12T16:11:55.611Z,10.75
2023-02-12T16:14:31.934Z,10.46
2023-02-12T16:16:59.950Z,10.54
2023-02-12T16:19:28.972Z,10.48
2023-02-12T16:22:19.519Z,10.31
2023-02-12T16:24:49.251Z,10.20
2023-02-12T16:27:15.712Z,10.00
2023-02-12T16:29:48.401Z,9.81
2023-02-12T16:32:36.485Z,9.78
2023-02-12T16:35:05.912Z,9.63
2023-02-12T16:37:44.575Z,9.54
2023-02-12T16:40:14.288Z,9.32
2023-02-12T16:42:46.832Z,9.23
2023-02-12T16:45:28.476Z,9.25
2023-02-12T16:48:17.116Z,8.99
2023-02-12T16:50:50.041Z,8.79
2023-02-12T16:53:26.461Z,8.84
2023-02-12T16:55:53.075Z,8.80
2023-02-12T16:58:19.520Z,8.72
2023-02-12T17:00:46.852Z,8.55
2023-02-12T17:03:16.014Z,8.53
2023-02-12T17:05:45.341Z,8.43
2023-02-12T17:08:20.327Z,8.39
2023-02-12T17:10:48.283Z,8.34
2023-02-12T17:13:15.612Z,8.21
2023-02-12T17:16:03.481Z,8.06
2023-02-12T17:18:33.302Z,8.15
2023-02-12T17:21:02.619Z,8.20
2023-02-12T17:23:30.438Z,8.22
2023-02-12T17:25:57.583Z,8.31
2023-02-12T17:28:25.424Z,8.26
2023-02-12T17:30:53.560Z,8.24
2023-02-12T17:33:20.446Z,8.21
2023-02-12T17:35:46.970Z,7.95
2023-02-12T17:38:14.287Z,7.94
2023-02-12T17:40:40.818Z,7.87
2023-02-12T17:43:07.762Z,7.95
2023-02-12T17:45:34.464Z,7.88
2023-02-12T17:48:01.023Z,7.63
2023-02-12T17:50:27.461Z,7.67
2023-02-12T17:52:54.611Z,7.70
2023-02-12T17:55:21.082Z,7.69
2023-02-12T17:57:51.979Z,7.65
2023-02-12T18:00:19.129Z,7.57
2023-02-12T18:02:46.094Z,7.43
2023-02-12T18:05:13.934Z,7.32
2023-02-12T18:07:40.696Z,7.19
2023-02-12T18:10:10.137Z,7.29
2023-02-12T18:12:40.609Z,7.34
2023-02-12T18:15:08.737Z,7.40
2023-02-12T18:17:36.324Z,7.46
2023-02-12T18:20:03.139Z,7.44
2023-02-12T18:22:30.344Z,7.32
2023-02-12T18:24:57.590Z,7.26
2023-02-12T18:27:25.048Z,7.27
2023-02-12T18:29:52.820Z,7.30
2023-02-12T18:32:19.339Z,7.33
2023-02-12T18:34:45.863Z,7.37
2023-02-12T18:37:14.559Z,7.20
2023-02-12T18:39:40.962Z,6.85
2023-02-12T18:42:08.049Z,6.69
2023-02-12T18:44:35.104Z,6.87
2023-02-12T18:47:01.797Z,6.92
2023-02-12T18:49:28.793Z,6.94
2023-02-12T18:51:55.256Z,6.86
2023-02-12T18:54:21.815Z,6.87
2023-02-12T18:56:52.022Z,6.78
2023-02-12T18:59:19.625Z,6.78
2023-02-12T19:01:47.369Z,6.80
2023-02-12T19:04:16.111Z,6.88
2023-02-12T19:06:46.669Z,6.90
2023-02-12T19:09:16.590Z,6.90
2023-02-12T19:11:46.468Z,6.82
2023-02-12T19:14:14.653Z,6.66
2023-02-12T19:16:41.433Z,6.31
2023-02-12T19:19:08.438Z,6.32
2023-02-12T19:21:35.278Z,6.43
2023-02-12T19:24:03.864Z,6.55
2023-02-12T19:26:32.189Z,6.51
2023-02-12T19:28:59.170Z,6.49
2023-02-12T19:31:35.294Z,6.41
2023-02-12T19:34:05.104Z,6.36
2023-02-12T19:36:33.569Z,6.35
2023-02-12T19:39:00.221Z,6.36
2023-02-12T19:41:28.949Z,6.32
2023-02-12T19:43:58.162Z,6.25
2023-02-12T19:46:27.067Z,6.18
2023-02-12T19:48:57.042Z,6.17
2023-02-12T19:51:25.192Z,6.26
2023-02-12T19:53:52.561Z,6.21
2023-02-12T19:56:19.156Z,6.04
2023-02-12T19:58:45.967Z,5.93
2023-02-12T20:01:16.226Z,6.02
2023-02-12T20:03:43.932Z,6.06
2023-02-12T20:06:14.783Z,6.13
2023-02-12T20:08:43.699Z,6.15
2023-02-12T20:11:13.482Z,6.08
2023-02-12T20:13:40.558Z,6.13
2023-02-12T20:16:11.539Z,6.14
2023-02-12T20:18:38.936Z,6.19
2023-02-12T20:21:14.682Z,6.13
2023-02-12T20:23:41.523Z,6.16
2023-02-12T20:26:10.488Z,6.13
2023-02-12T20:28:38.478Z,6.16
2023-02-12T20:31:16.319Z,6.19
2023-02-12T20:33:44.184Z,6.13
2023-02-12T20:36:13.128Z,6.16
2023-02-12T20:38:43.259Z,6.18
2023-02-12T20:41:13.702Z,6.09
2023-02-12T20:43:40.190Z,6.03
2023-02-12T20:46:16.116Z,5.89
2023-02-12T20:48:43.297Z,5.92
2023-02-12T20:51:17.781Z,5.90
2023-02-12T20:53:45.696Z,5.93
2023-02-12T20:56:34.581Z,5.92
2023-02-12T20:59:02.018Z,5.88
2023-02-12T21:01:40.690Z,5.87
2023-02-12T21:04:11.233Z,5.78
2023-02-12T21:06:40.228Z,5.86
2023-02-12T21:09:09.681Z,5.89
2023-02-12T21:11:37.131Z,5.92
2023-02-12T21:16:44.863Z,5.80
2023-02-12T21:19:13.143Z,5.63
2023-02-12T21:21:46.124Z,5.45
2023-02-12T21:24:15.885Z,5.59
2023-02-12T21:26:44.149Z,5.64
2023-02-12T21:29:10.765Z,5.60
2023-02-12T21:31:40.308Z,5.62
2023-02-12T21:34:08.405Z,5.57
2023-02-12T21:36:37.665Z,5.57
2023-02-12T21:39:24.642Z,5.62
2023-02-12T21:42:03.106Z,5.61
2023-02-12T21:44:32.070Z,5.64
2023-02-12T21:46:59.475Z,5.67
2023-02-12T21:49:27.837Z,5.61
2023-02-12T21:51:58.480Z,5.55
2023-02-12T21:54:26.056Z,5.53
2023-02-12T21:56:54.305Z,5.49
2023-02-12T21:59:21.438Z,5.19
2023-02-12T22:04:47.522Z,5.08
2023-02-12T22:07:15.870Z,5.12
2023-02-12T22:09:43.152Z,5.09
2023-02-12T22:12:10.013Z,5.14
2023-02-12T22:14:40.159Z,5.07
2023-02-12T22:17:06.840Z,4.99
2023-02-12T22:19:33.416Z,5.02
2023-02-12T22:21:59.898Z,4.99
2023-02-12T22:24:26.578Z,4.95
2023-02-12T22:26:57.415Z,4.96
2023-02-12T22:29:24.030Z,4.99
2023-02-12T22:31:50.805Z,5.02
2023-02-12T22:34:21.301Z,5.05
2023-02-12T22:36:48.165Z,5.10
2023-02-12T22:39:15.011Z,5.17
2023-02-12T22:41:45.081Z,5.17
2023-02-12T22:44:19.466Z,5.11
2023-02-12T22:47:04.265Z,5.08
2023-02-12T22:49:31.221Z,5.04
2023-02-12T22:51:57.831Z,4.90
2023-02-12T22:54:24.342Z,4.70
2023-02-12T22:56:53.621Z,4.67
2023-02-12T22:59:21.053Z,4.57
2023-02-12T23:01:48.094Z,4.58
2023-02-12T23:04:17.394Z,4.65
2023-02-12T23:06:45.083Z,4.83
2023-02-12T23:09:20.606Z,4.82
2023-02-12T23:11:48.058Z,4.67
2023-02-12T23:14:14.622Z,4.65
2023-02-12T23:16:43.814Z,4.70
2023-02-12T23:19:10.922Z,4.84
2023-02-12T23:21:38.154Z,4.91
2023-02-12T23:24:05.046Z,4.92
2023-02-12T23:26:36.834Z,4.92
2023-02-12T23:29:03.276Z,4.90
2023-02-12T23:31:30.097Z,4.83
2023-02-12T23:33:56.624Z,4.86
2023-02-12T23:36:23.107Z,4.93
2023-02-12T23:38:50.743Z,4.71
2023-02-12T23:41:17.332Z,4.62
2023-02-12T23:43:45.467Z,4.57
2023-02-12T23:46:11.990Z,4.53
2023-02-12T23:48:38.542Z,4.60
2023-02-12T23:51:05.445Z,4.56
2023-02-12T23:53:32.654Z,4.43
2023-02-12T23:56:03.201Z,4.35
2023-02-12T23:58:30.183Z,4.38
